createdAt,value
2022-08-01T00:02:32.973Z,20.60
2022-08-01T00:05:19.284Z,20.50
2022-08-01T00:08:06.095Z,20.50
2022-08-01T00:10:52.291Z,20.50
2022-08-01T00:13:38.405Z,20.50
2022-08-01T00:16:26.219Z,20.50
2022-08-01T00:19:12.517Z,20.40
2022-08-01T00:21:58.886Z,20.40
2022-08-01T00:24:44.996Z,20.50
2022-08-01T00:27:32.467Z,20.40
2022-08-01T00:30:24.059Z,20.40
2022-08-01T00:33:11.426Z,20.40
2022-08-01T00:35:58.148Z,20.40
2022-08-01T00:38:44.686Z,20.30
2022-08-01T00:41:30.848Z,20.40
2022-08-01T00:44:17.198Z,20.40
2022-08-01T00:47:04.435Z,20.40
2022-08-01T00:49:52.404Z,20.40
2022-08-01T00:52:39.032Z,20.40
2022-08-01T00:55:25.967Z,20.30
2022-08-01T00:58:12.591Z,20.40
2022-08-01T01:00:59.047Z,20.30
2022-08-01T01:03:59.436Z,20.40
2022-08-01T01:06:53.590Z,20.30
2022-08-01T01:09:47.850Z,20.30
2022-08-01T01:12:40.526Z,20.40
2022-08-01T01:15:32.679Z,20.30
2022-08-01T01:18:24.274Z,20.30
2022-08-01T01:21:32.958Z,20.30
2022-08-01T01:24:27.590Z,20.30
2022-08-01T01:27:23.349Z,20.20
2022-08-01T01:30:11.615Z,20.30
2022-08-01T01:33:02.145Z,20.20
2022-08-01T01:35:54.268Z,20.20
2022-08-01T01:38:43.926Z,20.30
2022-08-01T01:41:32.061Z,20.20
2022-08-01T01:44:20.061Z,20.20
2022-08-01T01:47:08.931Z,20.10
2022-08-01T01:49:57.424Z,20.10
2022-08-01T01:52:46.141Z,20.20
2022-08-01T01:55:33.323Z,20.10
2022-08-01T01:58:38.514Z,20.10
2022-08-01T02:02:08.827Z,20.10
2022-08-01T02:04:38.440Z,20.00
2022-08-01T02:07:26.855Z,19.90
2022-08-01T02:10:14.491Z,20.00
2022-08-01T02:13:05.170Z,19.90
2022-08-01T02:15:59.524Z,19.90
2022-08-01T02:18:46.841Z,19.90
2022-08-01T02:21:50.333Z,19.80
2022-08-01T02:24:39.819Z,19.80
2022-08-01T02:27:29.712Z,19.80
2022-08-01T02:30:17.221Z,19.80
2022-08-01T02:33:09.875Z,19.60
2022-08-01T02:36:30.376Z,19.70
2022-08-01T02:39:15.576Z,19.70
2022-08-01T02:42:07.664Z,19.60
2022-08-01T02:44:56.054Z,19.60
2022-08-01T02:47:44.904Z,19.70
2022-08-01T02:50:33.476Z,19.60
2022-08-01T02:53:22.781Z,19.50
2022-08-01T02:56:35.559Z,19.60
2022-08-01T02:59:26.407Z,19.60
2022-08-01T03:02:14.462Z,19.60
2022-08-01T03:05:02.781Z,19.60
2022-08-01T03:07:49.947Z,19.60
2022-08-01T03:10:38.971Z,19.60
2022-08-01T03:13:27.907Z,19.50
2022-08-01T03:16:15.426Z,19.50
2022-08-01T03:19:03.817Z,19.50
2022-08-01T03:21:51.683Z,19.50
2022-08-01T03:24:41.181Z,19.50
2022-08-01T03:27:27.709Z,19.40
2022-08-01T03:30:16.395Z,19.40
2022-08-01T03:33:04.486Z,19.40
2022-08-01T03:35:54.683Z,19.30
2022-08-01T03:38:42.385Z,19.40
2022-08-01T03:41:34.310Z,19.40
2022-08-01T03:44:29.661Z,19.40
2022-08-01T03:47:19.554Z,19.30
2022-08-01T03:50:12.599Z,19.40
2022-08-01T03:53:02.182Z,19.40
2022-08-01T03:55:49.190Z,19.30
2022-08-01T03:58:35.809Z,19.30
2022-08-01T04:01:22.239Z,19.30
2022-08-01T04:04:10.012Z,19.40
2022-08-01T04:06:56.130Z,19.30
2022-08-01T04:09:43.411Z,19.30
2022-08-01T04:12:29.631Z,19.30
2022-08-01T04:15:16.222Z,19.30
2022-08-01T04:18:02.589Z,19.30
2022-08-01T04:20:50.438Z,19.30
2022-08-01T04:23:37.575Z,19.30
2022-08-01T04:26:25.212Z,19.30
2022-08-01T04:29:13.806Z,19.30
2022-08-01T04:32:01.863Z,19.30
2022-08-01T04:34:50.176Z,19.30
2022-08-01T04:37:39.082Z,19.40
2022-08-01T04:40:28.026Z,19.30
2022-08-01T04:43:15.195Z,19.40
2022-08-01T04:46:04.690Z,19.30
2022-08-01T04:48:51.652Z,19.40
2022-08-01T04:51:37.795Z,19.40
2022-08-01T04:54:25.844Z,19.40
2022-08-01T04:57:12.026Z,19.50
2022-08-01T04:59:58.694Z,19.60
2022-08-01T05:02:44.972Z,19.60
2022-08-01T05:05:31.703Z,19.50
2022-08-01T05:08:18.302Z,19.50
2022-08-01T05:11:06.058Z,19.50
2022-08-01T05:13:52.389Z,19.60
2022-08-01T05:16:38.609Z,19.50
2022-08-01T05:19:25.088Z,19.60
2022-08-01T05:22:12.087Z,19.60
2022-08-01T05:24:58.556Z,19.60
2022-08-01T05:27:47.179Z,19.70
2022-08-01T05:30:35.298Z,19.70
2022-08-01T05:33:22.407Z,19.70
2022-08-01T05:36:08.939Z,19.70
2022-08-01T05:38:55.537Z,19.70
2022-08-01T05:41:42.166Z,19.70
2022-08-01T05:44:30.661Z,19.70
2022-08-01T05:47:16.959Z,19.70
2022-08-01T05:50:03.089Z,19.70
2022-08-01T05:52:49.505Z,19.80
2022-08-01T05:55:36.709Z,19.80
2022-08-01T05:58:22.821Z,19.80
2022-08-01T06:01:10.303Z,20.00
2022-08-01T06:03:56.723Z,19.90
2022-08-01T06:06:42.794Z,19.80
2022-08-01T06:09:29.907Z,19.90
2022-08-01T06:12:16.408Z,20.10
2022-08-01T06:15:02.789Z,20.30
2022-08-01T06:17:50.433Z,20.30
2022-08-01T06:20:36.650Z,20.20
2022-08-01T06:23:31.772Z,20.20
2022-08-01T06:26:19.750Z,20.30
2022-08-01T06:29:05.954Z,20.30
2022-08-01T06:31:52.394Z,20.20
2022-08-01T06:34:40.117Z,20.10
2022-08-01T06:37:30.293Z,20.10
2022-08-01T06:40:17.552Z,20.10
2022-08-01T06:43:04.082Z,20.10
2022-08-01T06:45:50.716Z,20.10
2022-08-01T06:48:40.146Z,20.40
2022-08-01T06:51:27.694Z,20.40
2022-08-01T06:54:13.870Z,20.40
2022-08-01T06:57:00.009Z,20.50
2022-08-01T06:59:52.004Z,20.60
2022-08-01T07:02:41.948Z,20.60
2022-08-01T07:05:28.584Z,20.60
2022-08-01T07:08:16.501Z,20.60
2022-08-01T07:11:02.818Z,20.60
2022-08-01T07:13:49.035Z,20.70
2022-08-01T07:16:35.244Z,20.60
2022-08-01T07:19:21.417Z,20.80
2022-08-01T07:22:08.057Z,21.00
2022-08-01T07:24:58.543Z,20.90
2022-08-01T07:27:45.505Z,21.10
2022-08-01T07:30:32.416Z,21.10
2022-08-01T07:33:18.700Z,21.10
2022-08-01T07:36:05.709Z,21.30
2022-08-01T07:38:55.447Z,21.30
2022-08-01T07:41:52.964Z,21.30
2022-08-01T07:44:48.940Z,21.40
2022-08-01T07:47:35.075Z,21.50
2022-08-01T07:50:21.629Z,21.50
2022-08-01T07:53:07.913Z,21.50
2022-08-01T07:55:55.155Z,21.50
2022-08-01T07:58:43.059Z,21.50
2022-08-01T08:01:29.506Z,21.70
2022-08-01T08:04:15.609Z,21.70
2022-08-01T08:07:02.087Z,21.70
2022-08-01T08:09:51.306Z,21.80
2022-08-01T08:12:37.873Z,21.90
2022-08-01T08:15:25.588Z,22.00
2022-08-01T08:18:11.642Z,22.20
2022-08-01T08:20:57.888Z,22.10
2022-08-01T08:24:02.028Z,22.10
2022-08-01T08:26:48.770Z,22.20
2022-08-01T08:29:38.875Z,22.30
2022-08-01T08:32:26.671Z,22.60
2022-08-01T08:35:17.240Z,22.60
2022-08-01T08:38:09.799Z,22.80
2022-08-01T08:40:58.707Z,22.90
2022-08-01T08:43:45.365Z,23.30
2022-08-01T08:46:34.571Z,23.40
2022-08-01T08:49:27.403Z,23.20
2022-08-01T08:52:23.621Z,23.00
2022-08-01T08:55:10.909Z,22.80
2022-08-01T08:57:58.492Z,22.90
2022-08-01T09:00:45.054Z,22.70
2022-08-01T09:03:35.091Z,22.30
2022-08-01T09:06:23.032Z,22.00
2022-08-01T09:09:10.563Z,21.70
2022-08-01T09:11:58.201Z,21.80
2022-08-01T09:14:48.737Z,21.90
2022-08-01T09:17:42.468Z,21.90
2022-08-01T09:20:31.783Z,22.10
2022-08-01T09:26:12.565Z,22.50
2022-08-01T09:29:00.210Z,22.60
2022-08-01T09:31:48.004Z,22.80
2022-08-01T09:34:34.838Z,22.70
2022-08-01T09:37:37.531Z,22.80
2022-08-01T09:40:23.902Z,22.60
2022-08-01T09:43:15.271Z,23.00
2022-08-01T09:46:07.308Z,22.90
2022-08-01T09:49:00.504Z,23.20
2022-08-01T09:52:00.294Z,23.40
2022-08-01T09:54:56.172Z,23.60
2022-08-01T09:57:43.061Z,23.70
2022-08-01T10:00:45.012Z,23.30
2022-08-01T10:03:31.597Z,23.00
2022-08-01T10:06:24.988Z,22.90
2022-08-01T10:09:12.382Z,23.50
2022-08-01T10:12:01.461Z,23.30
2022-08-01T10:14:50.520Z,23.50
2022-08-01T10:17:50.632Z,23.90
2022-08-01T10:20:38.660Z,23.80
2022-08-01T10:23:40.487Z,23.80
2022-08-01T10:26:28.808Z,24.10
2022-08-01T10:29:45.071Z,24.10
2022-08-01T10:32:28.918Z,23.80
2022-08-01T10:35:18.230Z,23.80
2022-08-01T10:38:25.225Z,23.90
2022-08-01T10:41:12.035Z,23.80
2022-08-01T10:43:59.991Z,23.90
2022-08-01T10:46:50.703Z,24.10
2022-08-01T10:49:45.124Z,24.30
2022-08-01T10:52:35.442Z,24.40
2022-08-01T10:55:26.836Z,24.20
2022-08-01T10:58:15.882Z,24.30
2022-08-01T11:01:28.879Z,24.40
2022-08-01T11:04:17.771Z,24.50
2022-08-01T11:07:07.245Z,24.70
2022-08-01T11:10:14.622Z,24.30
2022-08-01T11:13:04.399Z,24.20
2022-08-01T11:15:50.991Z,24.80
2022-08-01T11:18:38.037Z,25.10
2022-08-01T11:22:03.380Z,25.20
2022-08-01T11:25:00.242Z,24.90
2022-08-01T11:27:49.804Z,24.80
2022-08-01T11:30:36.016Z,24.20
2022-08-01T11:33:50.568Z,24.20
2022-08-01T11:39:44.268Z,24.10
2022-08-01T11:42:30.576Z,23.90
2022-08-01T11:45:18.834Z,23.80
2022-08-01T11:48:19.944Z,23.60
2022-08-01T11:51:23.924Z,23.30
2022-08-01T11:54:12.248Z,23.30
2022-08-01T11:57:00.103Z,23.80
2022-08-01T11:59:50.078Z,24.50
2022-08-01T12:02:59.973Z,24.60
2022-08-01T12:05:46.737Z,24.60
2022-08-01T12:08:35.672Z,24.80
2022-08-01T12:11:22.213Z,24.90
2022-08-01T12:14:09.960Z,25.00
2022-08-01T12:16:56.517Z,25.40
2022-08-01T12:19:44.079Z,25.00
2022-08-01T12:22:30.504Z,25.50
2022-08-01T12:25:17.960Z,25.90
2022-08-01T12:28:05.982Z,26.00
2022-08-01T12:30:52.644Z,26.20
2022-08-01T12:33:38.910Z,26.40
2022-08-01T12:36:30.766Z,26.20
2022-08-01T12:39:16.941Z,26.30
2022-08-01T12:42:03.530Z,26.10
2022-08-01T12:44:52.068Z,26.30
2022-08-01T12:47:39.065Z,26.60
2022-08-01T12:50:29.266Z,26.80
2022-08-01T12:53:19.463Z,26.80
2022-08-01T12:56:08.562Z,26.60
2022-08-01T12:58:55.680Z,26.60
2022-08-01T13:01:42.892Z,26.40
2022-08-01T13:04:29.653Z,26.00
2022-08-01T13:07:15.927Z,25.80
2022-08-01T13:10:03.627Z,25.40
2022-08-01T13:12:54.877Z,25.60
2022-08-01T13:15:44.552Z,26.00
2022-08-01T13:18:33.287Z,25.70
2022-08-01T13:21:21.148Z,25.50
2022-08-01T13:24:10.741Z,25.40
2022-08-01T13:27:00.847Z,25.70
2022-08-01T13:29:50.669Z,26.00
2022-08-01T13:32:37.362Z,25.40
2022-08-01T13:35:23.653Z,25.10
2022-08-01T13:38:09.829Z,25.40
2022-08-01T13:41:00.144Z,25.60
2022-08-01T13:43:58.980Z,25.40
2022-08-01T13:46:49.664Z,25.60
2022-08-01T13:49:38.328Z,25.40
2022-08-01T13:52:27.261Z,25.90
2022-08-01T13:55:13.703Z,26.70
2022-08-01T13:58:00.212Z,26.20
2022-08-01T14:00:47.987Z,26.00
2022-08-01T14:03:34.133Z,26.30
2022-08-01T14:06:22.459Z,26.10
2022-08-01T14:09:17.472Z,25.80
2022-08-01T14:12:05.278Z,25.30
2022-08-01T14:14:54.289Z,25.20
2022-08-01T14:17:47.887Z,25.20
2022-08-01T14:20:35.450Z,26.20
2022-08-01T14:23:21.985Z,25.90
2022-08-01T14:26:12.356Z,25.80
2022-08-01T14:28:59.006Z,25.40
2022-08-01T14:31:45.146Z,25.30
2022-08-01T14:34:32.962Z,25.10
2022-08-01T14:37:19.090Z,24.80
2022-08-01T14:40:10.140Z,24.70
2022-08-01T14:42:56.391Z,24.90
2022-08-01T14:45:42.870Z,26.70
2022-08-01T14:48:30.121Z,28.10
2022-08-01T14:51:17.958Z,29.20
2022-08-01T14:54:04.322Z,27.40
2022-08-01T14:56:52.639Z,26.30
2022-08-01T14:59:38.837Z,26.60
2022-08-01T15:02:27.656Z,26.70
2022-08-01T15:05:13.941Z,27.00
2022-08-01T15:08:01.603Z,27.30
2022-08-01T15:10:47.977Z,28.20
2022-08-01T15:13:36.280Z,28.40
2022-08-01T15:16:25.759Z,29.60
2022-08-01T15:19:12.711Z,28.90
2022-08-01T15:22:03.413Z,27.70
2022-08-01T15:24:56.814Z,28.00
2022-08-01T15:27:44.021Z,27.30
2022-08-01T15:30:30.474Z,26.30
2022-08-01T15:33:17.678Z,26.00
2022-08-01T15:36:03.882Z,25.70
2022-08-01T15:38:50.313Z,25.40
2022-08-01T15:41:38.179Z,25.20
2022-08-01T15:44:24.449Z,27.40
2022-08-01T15:47:11.215Z,28.50
2022-08-01T15:50:00.370Z,27.90
2022-08-01T15:52:46.422Z,27.70
2022-08-01T15:55:33.203Z,27.70
2022-08-01T15:58:21.783Z,27.00
2022-08-01T16:01:08.131Z,26.90
2022-08-01T16:03:54.494Z,27.30
2022-08-01T16:06:40.920Z,26.60
2022-08-01T16:09:29.916Z,26.20
2022-08-01T16:12:15.855Z,26.00
2022-08-01T16:15:03.781Z,25.70
2022-08-01T16:17:50.084Z,25.30
2022-08-01T16:20:42.790Z,25.20
2022-08-01T16:23:31.388Z,25.20
2022-08-01T16:26:27.053Z,25.20
2022-08-01T16:29:14.216Z,25.30
2022-08-01T16:32:12.846Z,25.40
2022-08-01T16:35:09.374Z,25.50
2022-08-01T16:37:55.845Z,25.40
2022-08-01T16:40:47.337Z,25.20
2022-08-01T16:43:36.031Z,25.30
2022-08-01T16:46:23.859Z,25.30
2022-08-01T16:49:12.800Z,25.20
2022-08-01T16:51:58.882Z,25.20
2022-08-01T16:54:44.997Z,24.90
2022-08-01T16:57:36.802Z,24.80
2022-08-01T17:00:26.006Z,24.70
2022-08-01T17:03:17.755Z,24.70
2022-08-01T17:06:22.719Z,24.70
2022-08-01T17:09:09.352Z,24.70
2022-08-01T17:11:55.879Z,24.90
2022-08-01T17:14:42.326Z,24.90
2022-08-01T17:17:29.648Z,24.90
2022-08-01T17:20:15.699Z,24.70
2022-08-01T17:23:03.275Z,24.50
2022-08-01T17:25:49.383Z,24.70
2022-08-01T17:28:35.535Z,24.50
2022-08-01T17:31:21.961Z,24.60
2022-08-01T17:34:08.070Z,24.40
2022-08-01T17:36:54.554Z,24.40
2022-08-01T17:39:42.062Z,24.00
2022-08-01T17:42:30.054Z,23.90
2022-08-01T17:45:27.496Z,23.90
2022-08-01T17:48:17.000Z,23.80
2022-08-01T17:51:03.208Z,23.80
2022-08-01T17:53:55.796Z,23.50
2022-08-01T17:56:46.073Z,23.20
2022-08-01T17:59:32.799Z,23.10
2022-08-01T18:02:19.045Z,23.10
2022-08-01T18:05:09.511Z,23.00
2022-08-01T18:08:00.653Z,23.00
2022-08-01T18:10:48.753Z,22.70
2022-08-01T18:13:36.629Z,22.40
2022-08-01T18:16:28.231Z,22.30
2022-08-01T18:19:14.849Z,22.30
2022-08-01T18:22:01.224Z,22.10
2022-08-01T18:24:47.522Z,22.00
2022-08-01T18:28:22.644Z,21.90
2022-08-01T18:30:41.811Z,21.90
2022-08-01T18:33:28.088Z,21.90
2022-08-01T18:36:30.704Z,21.70
2022-08-01T18:39:19.874Z,21.80
2022-08-01T18:42:06.605Z,21.50
2022-08-01T18:44:53.010Z,21.50
2022-08-01T18:47:41.007Z,21.40
2022-08-01T18:50:27.647Z,21.40
2022-08-01T18:53:13.747Z,21.20
2022-08-01T18:56:00.184Z,21.20
2022-08-01T18:58:46.255Z,21.10
2022-08-01T19:01:32.731Z,21.30
2022-08-01T19:04:21.610Z,20.90
2022-08-01T19:07:08.480Z,20.90
2022-08-01T19:09:55.304Z,20.70
2022-08-01T19:12:42.336Z,20.70
2022-08-01T19:15:28.523Z,20.50
2022-08-01T19:18:15.664Z,20.40
2022-08-01T19:21:04.411Z,20.40
2022-08-01T19:24:08.600Z,20.40
2022-08-01T19:26:56.756Z,20.40
2022-08-01T19:29:43.361Z,20.20
2022-08-01T19:32:32.805Z,20.10
2022-08-01T19:35:19.711Z,19.90
2022-08-01T19:38:07.275Z,20.00
2022-08-01T19:40:54.062Z,20.00
2022-08-01T19:43:46.388Z,19.90
2022-08-01T19:46:33.045Z,19.80
2022-08-01T19:49:21.480Z,19.80
2022-08-01T19:52:08.648Z,19.80
2022-08-01T19:54:57.508Z,19.70
2022-08-01T19:57:47.440Z,19.70
2022-08-01T20:00:38.761Z,19.50
2022-08-01T20:03:28.097Z,19.40
2022-08-01T20:06:14.632Z,19.40
2022-08-01T20:09:00.762Z,19.40
2022-08-01T20:11:50.765Z,19.20
2022-08-01T20:14:36.960Z,19.20
2022-08-01T20:17:24.480Z,19.20
2022-08-01T20:20:11.679Z,19.20
2022-08-01T20:22:58.878Z,19.10
2022-08-01T20:25:48.188Z,18.90
2022-08-01T20:28:38.462Z,19.00
2022-08-01T20:31:28.872Z,18.80
2022-08-01T20:34:30.532Z,18.80
2022-08-01T20:37:19.557Z,18.80
2022-08-01T20:40:28.719Z,18.60
2022-08-01T20:43:15.612Z,18.50
2022-08-01T20:46:05.445Z,18.30
2022-08-01T20:48:54.192Z,18.30
2022-08-01T20:51:42.575Z,18.20
2022-08-01T20:54:29.423Z,18.30
2022-08-01T20:57:23.391Z,18.10
2022-08-01T21:00:10.903Z,18.10
2022-08-01T21:03:06.562Z,18.20
2022-08-01T21:05:59.147Z,18.20
2022-08-01T21:08:49.764Z,18.00
2022-08-01T21:11:43.443Z,18.00
2022-08-01T21:14:41.445Z,18.00
2022-08-01T21:17:38.400Z,17.90
2022-08-01T21:20:28.961Z,17.80
2022-08-01T21:23:21.557Z,17.90
2022-08-01T21:26:12.328Z,17.80
2022-08-01T21:29:02.439Z,17.80
2022-08-01T21:32:11.339Z,17.80
2022-08-01T21:35:00.433Z,17.60
2022-08-01T21:37:52.449Z,17.60
2022-08-01T21:40:41.775Z,17.60
2022-08-01T21:43:29.267Z,17.50
2022-08-01T21:46:17.936Z,17.60
2022-08-01T21:49:04.860Z,17.40
2022-08-01T21:51:58.436Z,17.40
2022-08-01T21:55:02.390Z,17.30
2022-08-01T21:58:20.416Z,17.40
2022-08-01T22:01:09.050Z,17.30
2022-08-01T22:03:59.904Z,17.20
2022-08-01T22:06:49.884Z,17.20
2022-08-01T22:09:39.240Z,17.20
2022-08-01T22:12:27.424Z,17.20
2022-08-01T22:15:14.610Z,17.20
2022-08-01T22:18:01.636Z,17.00
2022-08-01T22:20:48.230Z,16.90
2022-08-01T22:23:37.590Z,16.80
2022-08-01T22:26:28.949Z,16.90
2022-08-01T22:29:17.897Z,16.70
2022-08-01T22:32:04.398Z,16.70
2022-08-01T22:34:52.201Z,16.60
2022-08-01T22:37:56.357Z,16.60
2022-08-01T22:40:49.440Z,16.40
2022-08-01T22:43:41.042Z,16.60
2022-08-01T22:46:32.456Z,16.40
2022-08-01T22:49:27.300Z,16.50
2022-08-01T22:52:18.586Z,16.40
2022-08-01T22:55:08.264Z,16.30
2022-08-01T22:58:00.073Z,16.30
2022-08-01T23:00:49.510Z,16.20
2022-08-01T23:03:41.066Z,16.20
2022-08-01T23:06:35.171Z,16.20
2022-08-01T23:09:22.719Z,16.10
2022-08-01T23:12:27.488Z,16.00
2022-08-01T23:15:14.630Z,16.00
2022-08-01T23:18:04.603Z,16.00
2022-08-01T23:20:52.824Z,15.80
2022-08-01T23:23:40.493Z,15.90
2022-08-01T23:26:29.975Z,15.70
2022-08-01T23:29:16.129Z,15.80
2022-08-01T23:32:03.444Z,15.70
2022-08-01T23:34:50.493Z,15.50
2022-08-01T23:37:38.196Z,15.50
2022-08-01T23:40:24.823Z,15.70
2022-08-01T23:43:16.733Z,15.60
2022-08-01T23:46:05.478Z,15.50
2022-08-01T23:48:51.771Z,15.50
2022-08-01T23:51:38.189Z,15.50
2022-08-01T23:54:26.360Z,15.40
2022-08-01T23:57:13.455Z,15.40
